Time;durP1;ratioP1;P1;durP2;ratioP2;P2;SDS_P1;SDS_P2;PMS_P1;PMS_P2;Temp;Humidity;BMP_temperature;BMP_pressure;BME280_temperature;BME280_humidity;BME280_pressure;Samples;Min_cycle;Max_cycle;Signal;HPM_P1;HPM_P2
2023/12/08 00:02:15;;;;;;;11.48;8.05;;;;;;;8.05;100.00;99976.63;5075522;28;20047;-60
2023/12/08 00:04:42;;;;;;;10.65;7.70;;;;;;;7.93;100.00;99977.16;5077672;28;20060;-59
2023/12/08 00:07:10;;;;;;;10.98;8.32;;;;;;;7.97;100.00;99974.63;5102880;28;20063;-61
2023/12/08 00:09:37;;;;;;;11.45;7.75;;;;;;;8.23;100.00;99983.78;5108724;28;20048;-60
2023/12/08 00:12:05;;;;;;;11.90;8.30;;;;;;;8.17;100.00;99984.25;5095182;28;20059;-57
2023/12/08 00:14:32;;;;;;;11.20;7.85;;;;;;;8.17;100.00;99974.09;5109978;28;20044;-56
2023/12/08 00:16:59;;;;;;;12.20;8.50;;;;;;;8.20;100.00;99978.94;5102376;28;20075;-57
2023/12/08 00:19:26;;;;;;;14.50;8.80;;;;;;;8.26;100.00;99985.13;5111033;28;20052;-55
2023/12/08 00:21:54;;;;;;;11.38;8.30;;;;;;;8.25;100.00;99991.72;5101001;28;20048;-58
2023/12/08 00:24:21;;;;;;;11.15;7.90;;;;;;;8.33;100.00;99991.78;5110700;28;20486;-57
2023/12/08 00:26:48;;;;;;;12.50;8.32;;;;;;;8.29;100.00;99998.22;5099046;28;20063;-57
2023/12/08 00:29:19;;;;;;;11.88;8.40;;;;;;;8.36;100.00;100002.13;5105691;28;20039;-56
2023/12/08 00:31:47;;;;;;;9.73;7.43;;;;;;;8.44;100.00;100006.84;5110620;28;20043;-57
2023/12/08 00:34:14;;;;;;;11.05;7.63;;;;;;;8.61;100.00;100004.16;5111389;28;20063;-56
2023/12/08 00:36:42;;;;;;;10.60;7.72;;;;;;;8.57;100.00;100003.19;5099708;28;20052;-58
2023/12/08 00:39:09;;;;;;;9.70;7.05;;;;;;;8.55;100.00;99997.19;5073630;28;20040;-58
2023/12/08 00:41:36;;;;;;;10.48;7.28;;;;;;;8.48;100.00;100001.53;5079694;28;20048;-56
2023/12/08 00:44:04;;;;;;;9.85;6.88;;;;;;;8.39;100.00;100003.41;5091181;28;20498;-58
2023/12/08 00:46:31;;;;;;;9.52;6.57;;;;;;;8.55;100.00;100010.09;5091019;28;20047;-61
2023/12/08 00:48:59;;;;;;;9.43;6.03;;;;;;;8.60;100.00;100012.72;5109843;28;20039;-57
2023/12/08 00:51:26;;;;;;;9.32;6.00;;;;;;;8.63;100.00;100012.88;5093894;28;20051;-58
2023/12/08 00:53:53;;;;;;;7.18;5.00;;;;;;;8.61;100.00;100008.84;5085071;28;20808;-59
2023/12/08 00:56:21;;;;;;;7.28;4.95;;;;;;;8.79;100.00;100005.84;5106292;28;20052;-58
2023/12/08 00:58:48;;;;;;;7.32;5.28;;;;;;;8.84;100.00;100002.94;5091238;28;20051;-58
2023/12/08 01:01:17;;;;;;;7.05;4.53;;;;;;;8.68;100.00;100004.50;5073555;28;20048;-55
2023/12/08 01:03:44;;;;;;;7.80;4.80;;;;;;;8.63;100.00;100003.84;5092750;28;20043;-56
2023/12/08 01:06:11;;;;;;;6.85;4.85;;;;;;;8.61;100.00;100020.63;5095822;28;20036;-56
2023/12/08 01:08:39;;;;;;;6.85;4.43;;;;;;;8.57;100.00;100014.16;5111385;28;20047;-59
2023/12/08 01:11:08;;;;;;;7.38;4.50;;;;;;;8.68;100.00;100011.94;5075207;28;20732;-57
2023/12/08 01:13:35;;;;;;;7.38;4.57;;;;;;;8.65;100.00;100023.53;5071539;28;20060;-58
2023/12/08 01:16:06;;;;;;;7.88;4.93;;;;;;;8.85;100.00;100012.81;5108522;28;20056;-55
2023/12/08 01:18:33;;;;;;;8.85;4.85;;;;;;;8.80;100.00;100010.19;5110757;28;20051;-56
2023/12/08 01:21:01;;;;;;;7.68;4.32;;;;;;;8.85;100.00;100031.22;5111547;28;20094;-57
2023/12/08 01:23:28;;;;;;;5.80;4.03;;;;;;;8.84;100.00;100021.34;5082919;28;20044;-58
2023/12/08 01:25:56;;;;;;;7.55;4.55;;;;;;;8.73;100.00;100023.59;5095405;28;20059;-52
2023/12/08 01:28:23;;;;;;;6.95;4.60;;;;;;;8.78;100.00;100023.44;5089282;28;20079;-58
2023/12/08 01:30:50;;;;;;;10.50;4.60;;;;;;;8.87;100.00;100024.25;5089171;28;20483;-56
2023/12/08 01:33:18;;;;;;;13.13;5.22;;;;;;;8.94;100.00;100030.09;5083321;28;20047;-55
2023/12/08 01:35:45;;;;;;;7.28;4.60;;;;;;;8.92;100.00;100028.81;5111336;28;20048;-53
2023/12/08 01:38:12;;;;;;;9.02;4.63;;;;;;;8.93;100.00;100031.22;5111334;28;20046;-56
2023/12/08 01:40:40;;;;;;;8.85;4.70;;;;;;;9.10;100.00;100034.03;5075770;28;20052;-58
2023/12/08 01:43:11;;;;;;;9.43;4.75;;;;;;;8.97;100.00;100032.22;5111349;28;20039;-56
2023/12/08 01:45:39;;;;;;;13.15;5.13;;;;;;;8.95;100.00;100034.47;5111210;28;20459;-56
2023/12/08 01:48:08;;;;;;;12.88;5.35;;;;;;;9.07;100.00;100031.91;5105875;28;20047;-57
2023/12/08 01:50:35;;;;;;;10.65;5.25;;;;;;;9.02;100.00;100032.06;5093228;28;20043;-58
2023/12/08 01:53:03;;;;;;;11.00;4.50;;;;;;;8.88;100.00;100030.56;5092909;28;20066;-57
2023/12/08 01:55:31;;;;;;;9.88;5.00;;;;;;;8.87;100.00;100032.50;5078445;28;20565;-54
2023/12/08 01:58:00;;;;;;;8.57;4.90;;;;;;;8.89;100.00;100034.94;5094503;28;20063;-58
2023/12/08 02:00:27;;;;;;;10.95;5.47;;;;;;;9.06;100.00;100041.31;5094948;28;20357;-58
2023/12/08 02:02:56;;;;;;;12.80;5.32;;;;;;;9.02;100.00;100042.25;5102184;28;20480;-58
2023/12/08 02:05:24;;;;;;;13.10;5.38;;;;;;;8.96;100.00;100047.06;5079998;28;20048;-58
2023/12/08 02:07:53;;;;;;;12.55;5.30;;;;;;;8.94;100.00;100048.53;5114833;28;20052;-57
2023/12/08 02:10:20;;;;;;;13.85;5.30;;;;;;;8.89;100.00;100054.19;5096745;28;20036;-57
2023/12/08 02:12:48;;;;;;;11.07;5.40;;;;;;;9.03;100.00;100050.16;5114837;28;20066;-57
2023/12/08 02:15:15;;;;;;;9.13;5.40;;;;;;;9.10;100.00;100057.94;5114882;28;20052;-55
2023/12/08 02:17:46;;;;;;;12.52;5.53;;;;;;;8.93;100.00;100057.88;5078777;28;20056;-57
2023/12/08 02:20:15;;;;;;;14.07;5.78;;;;;;;9.03;100.00;100066.63;5096362;28;20047;-58
2023/12/08 02:22:42;;;;;;;11.57;5.50;;;;;;;9.05;100.00;100077.31;5094857;28;20043;-57
2023/12/08 02:25:10;;;;;;;9.32;5.47;;;;;;;9.02;100.00;100077.94;5105960;28;20059;-59
2023/12/08 02:27:37;;;;;;;14.80;6.22;;;;;;;9.00;100.00;100071.97;5074959;28;20055;-58
2023/12/08 02:30:05;;;;;;;12.10;6.07;;;;;;;8.87;100.00;100064.66;5104639;28;20039;-59
2023/12/08 02:33:04;;;;;;;13.15;6.22;;;;;;;8.93;100.00;100068.88;5077662;28;20543;-58
2023/12/08 02:35:32;;;;;;;13.30;5.70;;;;;;;8.98;100.00;100068.72;5093595;28;20055;-54
2023/12/08 02:38:01;;;;;;;14.10;6.32;;;;;;;8.97;100.00;100069.88;5090974;28;20052;-58
2023/12/08 02:40:28;;;;;;;16.10;6.45;;;;;;;8.79;100.00;100071.72;5091704;28;20051;-58
2023/12/08 02:42:56;;;;;;;16.85;6.50;;;;;;;8.93;100.00;100061.44;5092912;28;20048;-59
2023/12/08 02:45:24;;;;;;;16.15;6.25;;;;;;;8.84;100.00;100063.34;5092743;28;20047;-57
2023/12/08 02:47:51;;;;;;;14.82;5.90;;;;;;;8.91;100.00;100060.94;5106887;28;20431;-56
2023/12/08 02:50:18;;;;;;;11.57;6.25;;;;;;;9.17;100.00;100068.47;5112690;28;20064;-56
2023/12/08 02:52:46;;;;;;;17.52;6.25;;;;;;;9.07;100.00;100056.66;5095357;28;20050;-59
2023/12/08 02:55:13;;;;;;;18.02;6.05;;;;;;;9.02;100.00;100061.47;5080540;28;20054;-58
2023/12/08 02:57:40;;;;;;;25.23;7.00;;;;;;;9.03;100.00;100068.59;5093225;28;20050;-58
2023/12/08 03:00:08;;;;;;;16.58;6.47;;;;;;;9.17;100.00;100062.97;5109693;28;20427;-57
2023/12/08 03:02:35;;;;;;;18.63;6.85;;;;;;;9.27;100.00;100068.16;5114079;28;20483;-58
2023/12/08 03:05:03;;;;;;;19.42;6.90;;;;;;;9.01;100.00;100070.84;5113463;28;20786;-58
2023/12/08 03:07:30;;;;;;;20.52;7.13;;;;;;;9.12;100.00;100074.91;5113661;28;20043;-57
2023/12/08 03:09:58;;;;;;;21.90;6.78;;;;;;;9.18;100.00;100073.63;5113821;28;20044;-58
2023/12/08 03:12:25;;;;;;;17.75;7.00;;;;;;;9.63;100.00;100046.69;5113732;28;20075;-56
2023/12/08 03:14:52;;;;;;;20.38;7.18;;;;;;;9.44;100.00;100049.75;5094995;28;20051;-59
2023/12/08 03:17:19;;;;;;;23.13;7.35;;;;;;;9.27;100.00;100059.91;5095751;28;20059;-57
2023/12/08 03:19:47;;;;;;;22.40;7.65;;;;;;;9.37;100.00;100057.66;5114026;28;20047;-61
2023/12/08 03:22:14;;;;;;;20.77;7.25;;;;;;;9.39;100.00;100058.16;5095580;28;20155;-59
2023/12/08 03:24:41;;;;;;;21.67;7.03;;;;;;;9.27;100.00;100054.41;5111443;28;20058;-54
2023/12/08 03:27:09;;;;;;;22.23;6.65;;;;;;;9.19;100.00;100060.72;5092110;28;20055;-57
2023/12/08 03:29:40;;;;;;;24.77;7.55;;;;;;;9.21;100.00;100056.50;5097598;28;20054;-58
2023/12/08 03:32:07;;;;;;;23.70;6.80;;;;;;;9.25;100.00;100053.94;5113369;28;20043;-55
2023/12/08 03:34:35;;;;;;;24.02;6.75;;;;;;;9.44;100.00;100062.69;5092468;28;20051;-57
2023/12/08 03:37:02;;;;;;;21.60;7.15;;;;;;;9.27;100.00;100074.47;5113109;28;20501;-59
2023/12/08 03:39:30;;;;;;;27.83;7.00;;;;;;;9.14;100.00;100080.91;5112968;28;20050;-58
2023/12/08 03:41:57;;;;;;;21.00;7.03;;;;;;;9.04;100.00;100078.44;5094677;28;20051;-54
2023/12/08 03:44:24;;;;;;;22.73;6.70;;;;;;;9.20;100.00;100090.63;5112995;28;20578;-60
2023/12/08 03:46:51;;;;;;;22.10;6.88;;;;;;;9.37;100.00;100084.34;5093597;28;20043;-55
2023/12/08 03:49:19;;;;;;;21.83;6.53;;;;;;;9.31;100.00;100080.13;5092627;28;20048;-59
2023/12/08 03:51:46;;;;;;;27.38;7.95;;;;;;;9.33;100.00;100094.38;5091335;28;20058;-56
2023/12/08 03:54:14;;;;;;;31.70;7.80;;;;;;;9.27;100.00;100101.94;5094235;28;20055;-56
2023/12/08 03:56:41;;;;;;;28.38;7.90;;;;;;;9.27;100.00;100106.63;5112261;28;20411;-55
2023/12/08 03:59:09;;;;;;;28.20;7.20;;;;;;;9.39;100.00;100115.06;5094252;28;20047;-58
2023/12/08 04:01:36;;;;;;;24.70;6.55;;;;;;;9.34;100.00;100116.03;5112497;28;20051;-55
2023/12/08 04:04:03;;;;;;;23.65;6.78;;;;;;;9.55;100.00;100113.47;5093847;28;20165;-57
2023/12/08 04:06:31;;;;;;;29.55;7.97;;;;;;;9.50;100.00;100119.94;5112307;28;20043;-59
2023/12/08 04:08:59;;;;;;;30.33;7.05;;;;;;;9.70;100.00;100127.56;5093428;28;20724;-56
2023/12/08 04:11:26;;;;;;;22.85;7.30;;;;;;;9.49;100.00;100126.56;5076457;28;20047;-54
2023/12/08 04:13:53;;;;;;;32.25;8.30;;;;;;;9.57;100.00;100131.25;5094289;28;20047;-59
2023/12/08 04:16:21;;;;;;;23.17;7.28;;;;;;;9.57;100.00;100144.22;5093634;28;20565;-56
2023/12/08 04:18:48;;;;;;;29.42;7.75;;;;;;;9.66;100.00;100142.31;5111522;28;20055;-57
2023/12/08 04:21:17;;;;;;;22.83;7.20;;;;;;;9.69;100.00;100149.91;5112096;28;20042;-57
2023/12/08 04:23:45;;;;;;;26.17;6.87;;;;;;;9.61;100.00;100153.44;5112294;28;20507;-55
2023/12/08 04:26:12;;;;;;;23.05;7.00;;;;;;;9.70;100.00;100160.56;5092395;28;20281;-58
2023/12/08 04:28:39;;;;;;;25.67;6.68;;;;;;;9.46;100.00;100162.13;5075801;28;20058;-55
2023/12/08 04:31:07;;;;;;;33.38;7.10;;;;;;;9.30;100.00;100158.19;5111759;28;20036;-59
2023/12/08 04:33:34;;;;;;;22.33;6.53;;;;;;;9.41;100.00;100154.03;5101513;28;20044;-55
2023/12/08 04:36:02;;;;;;;23.40;6.07;;;;;;;9.46;100.00;100159.38;5091386;28;20458;-57
2023/12/08 04:38:29;;;;;;;25.60;7.03;;;;;;;9.44;100.00;100156.97;5091273;28;20056;-58
2023/12/08 04:40:57;;;;;;;27.38;7.30;;;;;;;9.56;100.00;100157.16;5091527;28;20062;-55
2023/12/08 04:43:24;;;;;;;27.30;8.23;;;;;;;9.53;100.00;100156.97;5091613;28;20048;-56
2023/12/08 04:45:51;;;;;;;23.90;6.20;;;;;;;9.79;100.00;100169.66;5091248;28;20051;-56
2023/12/08 04:48:18;;;;;;;26.38;6.05;;;;;;;9.82;100.00;100162.69;5096275;28;20534;-58
2023/12/08 04:50:46;;;;;;;25.35;6.60;;;;;;;9.85;100.00;100165.59;5090551;28;20043;-59
2023/12/08 04:53:13;;;;;;;20.33;6.05;;;;;;;9.87;100.00;100157.03;5112136;28;20043;-58
2023/12/08 04:55:40;;;;;;;24.30;6.13;;;;;;;9.86;100.00;100166.41;5092988;28;20051;-56
2023/12/08 04:58:07;;;;;;;28.15;6.60;;;;;;;10.09;100.00;100156.94;5111818;28;20514;-55
2023/12/08 05:00:35;;;;;;;28.52;6.97;;;;;;;9.89;100.00;100172.09;5111222;28;20043;-58
2023/12/08 05:03:02;;;;;;;28.90;6.57;;;;;;;9.83;100.00;100178.06;5111626;28;20047;-60
2023/12/08 05:05:43;;;;;;;29.98;6.65;;;;;;;9.74;100.00;100177.25;5093010;28;20054;-57
2023/12/08 05:08:13;;;;;;;30.38;6.97;;;;;;;9.77;100.00;100184.84;5092970;28;20406;-57
2023/12/08 05:10:40;;;;;;;34.05;7.82;;;;;;;9.64;100.00;100180.31;5111237;28;20070;-57
2023/12/08 05:13:07;;;;;;;31.10;8.45;;;;;;;9.67;100.00;100180.47;5110650;28;20043;-58
2023/12/08 05:15:35;;;;;;;30.65;7.88;;;;;;;9.68;100.00;100190.31;5111203;28;20051;-57
2023/12/08 05:18:02;;;;;;;33.72;7.88;;;;;;;9.63;100.00;100187.72;5111342;28;20056;-57
2023/12/08 05:20:30;;;;;;;25.73;7.25;;;;;;;9.71;100.00;100186.94;5111438;28;20051;-56
2023/12/08 05:22:57;;;;;;;27.25;7.10;;;;;;;9.69;100.00;100186.44;5111397;28;20059;-58
2023/12/08 05:25:25;;;;;;;30.70;7.85;;;;;;;9.75;100.00;100185.16;5111123;28;20058;-59
2023/12/08 05:27:52;;;;;;;36.00;9.02;;;;;;;9.87;100.00;100188.09;5111296;28;20055;-55
2023/12/08 05:30:20;;;;;;;37.42;7.80;;;;;;;9.92;100.00;100190.69;5115790;28;20422;-56
2023/12/08 05:32:48;;;;;;;33.47;8.52;;;;;;;9.84;100.00;100186.00;5111548;28;20043;-57
2023/12/08 05:35:15;;;;;;;28.15;7.93;;;;;;;9.87;100.00;100187.28;5095284;28;20410;-55
2023/12/08 05:37:42;;;;;;;27.08;7.65;;;;;;;9.87;100.00;100195.53;5094731;28;20052;-58
2023/12/08 05:40:10;;;;;;;29.00;7.28;;;;;;;9.86;100.00;100207.69;5095300;28;20055;-57
2023/12/08 05:42:37;;;;;;;33.58;7.75;;;;;;;9.94;100.00;100212.38;5094812;28;20110;-55
2023/12/08 05:45:05;;;;;;;36.97;8.32;;;;;;;9.96;100.00;100210.13;5094900;28;20060;-54
2023/12/08 05:47:32;;;;;;;37.28;8.50;;;;;;;10.01;100.00;100213.53;5104818;28;20043;-58
2023/12/08 05:50:00;;;;;;;33.15;7.97;;;;;;;10.08;100.00;100204.78;5115497;28;20454;-58
2023/12/08 05:52:28;;;;;;;30.48;7.57;;;;;;;10.02;100.00;100212.38;5114729;28;20043;-55
2023/12/08 05:54:55;;;;;;;33.53;7.72;;;;;;;9.99;100.00;100218.53;5096608;28;20550;-56
2023/12/08 05:57:22;;;;;;;34.78;7.95;;;;;;;10.06;100.00;100220.81;5115098;28;20050;-57
2023/12/08 05:59:50;;;;;;;31.15;8.55;;;;;;;10.09;100.00;100214.72;5097244;28;20581;-57
2023/12/08 06:02:17;;;;;;;31.77;8.18;;;;;;;9.98;100.00;100222.44;5096692;28;20406;-58
2023/12/08 06:04:45;;;;;;;30.52;8.07;;;;;;;9.96;100.00;100230.19;5096826;28;20538;-57
2023/12/08 06:07:12;;;;;;;39.20;8.23;;;;;;;9.93;100.00;100227.28;5096596;28;20450;-58
2023/12/08 06:09:39;;;;;;;30.83;8.05;;;;;;;9.93;100.00;100228.09;5077503;28;20888;-56
2023/12/08 06:12:07;;;;;;;33.45;8.10;;;;;;;9.92;100.00;100231.16;5091453;28;20055;-57
2023/12/08 06:14:34;;;;;;;26.40;7.55;;;;;;;9.98;100.00;100238.13;5075804;28;20055;-54
2023/12/08 06:17:02;;;;;;;33.55;8.55;;;;;;;9.83;100.00;100239.38;5094586;28;20047;-57
2023/12/08 06:19:30;;;;;;;29.40;8.23;;;;;;;9.87;100.00;100237.63;5094201;28;20044;-59
2023/12/08 06:21:58;;;;;;;35.08;9.23;;;;;;;9.84;100.00;100249.25;5092679;28;20040;-57
2023/12/08 06:24:25;;;;;;;32.92;8.13;;;;;;;10.04;100.00;100245.91;5093905;28;20051;-55
2023/12/08 06:26:52;;;;;;;35.42;8.07;;;;;;;9.91;100.00;100262.53;5121494;27;20183;-58
2023/12/08 06:29:20;;;;;;;29.63;7.70;;;;;;;9.99;100.00;100259.81;5130628;27;20047;-55
2023/12/08 06:31:47;;;;;;;35.90;8.98;;;;;;;10.16;100.00;100261.81;5125169;27;20054;-61
2023/12/08 06:34:14;;;;;;;33.35;9.25;;;;;;;10.09;100.00;100262.28;5100734;27;20510;-57
2023/12/08 06:36:45;;;;;;;27.90;8.25;;;;;;;9.81;100.00;100273.84;5093672;28;20067;-55
2023/12/08 06:39:13;;;;;;;37.60;9.68;;;;;;;9.66;100.00;100269.59;5094210;28;20056;-58
2023/12/08 06:41:40;;;;;;;38.03;10.40;;;;;;;9.82;100.00;100270.78;5074991;28;20044;-57
2023/12/08 06:44:07;;;;;;;34.13;9.15;;;;;;;9.75;100.00;100275.94;5095897;28;20048;-60
2023/12/08 06:46:35;;;;;;;32.47;8.50;;;;;;;9.68;100.00;100274.75;5095614;28;20071;-57
2023/12/08 06:49:02;;;;;;;34.15;9.45;;;;;;;9.64;100.00;100282.03;5095884;28;20078;-58
2023/12/08 06:51:30;;;;;;;37.83;8.52;;;;;;;9.59;100.00;100280.22;5075771;28;20047;-59
2023/12/08 06:53:57;;;;;;;35.33;8.98;;;;;;;9.78;100.00;100278.03;5100017;27;20047;-57
2023/12/08 06:56:25;;;;;;;34.88;9.20;;;;;;;10.03;100.00;100288.31;5121264;27;20533;-56
2023/12/08 06:58:52;;;;;;;29.08;8.98;;;;;;;10.32;100.00;100296.00;5114197;28;20044;-58
2023/12/08 07:01:19;;;;;;;35.50;9.27;;;;;;;10.23;100.00;100297.94;5102398;28;20050;-59
2023/12/08 07:03:47;;;;;;;39.47;9.20;;;;;;;10.18;100.00;100293.38;5114074;28;20051;-57
2023/12/08 07:06:14;;;;;;;38.97;9.93;;;;;;;10.27;100.00;100301.66;5099517;28;20683;-56
2023/12/08 07:08:42;;;;;;;37.72;10.30;;;;;;;9.95;100.00;100319.38;5113689;28;20048;-58
2023/12/08 07:11:09;;;;;;;34.85;9.00;;;;;;;10.16;100.00;100311.38;5095475;28;20485;-59
2023/12/08 07:13:37;;;;;;;37.05;9.75;;;;;;;10.12;100.00;100307.63;5101268;28;20498;-58
2023/12/08 07:16:09;;;;;;;33.88;10.50;;;;;;;10.16;100.00;100306.66;5063173;28;20423;-56
2023/12/08 07:18:37;;;;;;;33.40;10.40;;;;;;;10.05;100.00;100312.75;5092670;28;20443;-59
2023/12/08 07:21:05;;;;;;;41.05;10.95;;;;;;;9.98;100.00;100313.22;5092525;28;20048;-58
2023/12/08 07:23:33;;;;;;;40.83;10.50;;;;;;;9.88;100.00;100319.03;5060715;28;20419;-57
2023/12/08 07:26:01;;;;;;;39.70;11.02;;;;;;;10.07;100.00;100327.00;5107941;28;20051;-59
2023/12/08 07:28:28;;;;;;;37.70;11.15;;;;;;;10.06;100.00;100325.38;5113494;28;20054;-60
2023/12/08 07:30:55;;;;;;;44.13;12.00;;;;;;;9.80;100.00;100338.22;5097193;28;20415;-56
2023/12/08 07:33:23;;;;;;;31.45;9.93;;;;;;;9.79;100.00;100339.38;5103936;28;20047;-61
2023/12/08 07:35:51;;;;;;;29.88;9.43;;;;;;;9.65;100.00;100341.41;5092863;28;20047;-58
2023/12/08 07:38:18;;;;;;;33.83;9.07;;;;;;;9.68;100.00;100349.00;5092861;28;20059;-59
2023/12/08 07:40:45;;;;;;;28.10;8.88;;;;;;;9.55;100.00;100349.94;5103326;28;20051;-58
2023/12/08 07:43:13;;;;;;;30.70;9.93;;;;;;;9.22;100.00;100357.66;5113161;28;20042;-58
2023/12/08 07:45:40;;;;;;;30.05;9.00;;;;;;;9.17;100.00;100360.50;5092899;28;20435;-57
2023/12/08 07:48:08;;;;;;;36.05;9.15;;;;;;;9.04;100.00;100364.13;5105693;28;20055;-57
2023/12/08 07:50:35;;;;;;;23.05;8.63;;;;;;;9.25;100.00;100358.94;5091251;28;20380;-56
2023/12/08 07:53:02;;;;;;;28.55;9.35;;;;;;;9.33;100.00;100359.00;5108793;27;20036;-59
2023/12/08 07:55:30;;;;;;;29.30;10.18;;;;;;;9.37;100.00;100354.50;5102751;28;20047;-57
2023/12/08 07:57:57;;;;;;;26.90;9.32;;;;;;;9.29;100.00;100359.97;5093640;28;20352;-57
2023/12/08 08:00:25;;;;;;;29.55;9.73;;;;;;;9.35;100.00;100366.94;5061633;28;20043;-57
2023/12/08 08:02:52;;;;;;;36.17;11.35;;;;;;;9.48;100.00;100374.31;5094411;28;20043;-59
2023/12/08 08:05:19;;;;;;;27.25;10.52;;;;;;;9.33;100.00;100377.44;5109587;28;20043;-58
2023/12/08 08:07:47;;;;;;;36.47;10.02;;;;;;;9.70;100.00;100383.31;5108161;28;20040;-52
2023/12/08 08:10:14;;;;;;;33.83;11.02;;;;;;;9.99;100.00;100380.03;5074734;28;20426;-56
2023/12/08 08:12:41;;;;;;;29.35;9.23;;;;;;;10.22;100.00;100381.63;5107175;28;20060;-58
2023/12/08 08:15:08;;;;;;;26.70;10.20;;;;;;;10.34;100.00;100381.81;5077787;28;20047;-55
2023/12/08 08:17:36;;;;;;;27.77;9.75;;;;;;;10.55;100.00;100391.09;5102184;27;20054;-61
2023/12/08 08:20:05;;;;;;;26.90;9.18;;;;;;;9.90;100.00;100399.28;5100998;28;20048;-56
2023/12/08 08:22:33;;;;;;;28.20;9.70;;;;;;;9.78;100.00;100404.56;5105000;28;20047;-58
2023/12/08 08:25:03;;;;;;;26.52;8.80;;;;;;;9.84;100.00;100399.72;5101739;28;20060;-56
2023/12/08 08:27:31;;;;;;;24.63;8.60;;;;;;;9.79;100.00;100402.63;5103756;28;20047;-57
2023/12/08 08:29:59;;;;;;;23.73;9.43;;;;;;;10.05;100.00;100403.56;5107117;28;20450;-59
2023/12/08 08:32:27;;;;;;;24.92;9.00;;;;;;;9.91;100.00;100400.09;5106924;28;20039;-62
2023/12/08 08:34:55;;;;;;;30.63;9.10;;;;;;;9.98;100.00;100409.53;5096708;28;20043;-58
2023/12/08 08:37:25;;;;;;;26.50;9.07;;;;;;;10.22;100.00;100411.13;5104520;28;20047;-53
2023/12/08 08:39:52;;;;;;;23.02;9.45;;;;;;;9.98;100.00;100419.72;5098298;28;20040;-59
2023/12/08 08:42:20;;;;;;;28.50;9.30;;;;;;;9.81;100.00;100420.44;5109328;27;20047;-58
2023/12/08 08:44:47;;;;;;;32.30;9.20;;;;;;;9.92;100.00;100415.50;5105871;28;20039;-59
2023/12/08 08:47:14;;;;;;;22.80;8.32;;;;;;;9.98;100.00;100414.19;5106163;28;20051;-54
2023/12/08 08:49:42;;;;;;;27.58;9.32;;;;;;;10.00;100.00;100417.47;5107785;28;20055;-57
2023/12/08 08:52:09;;;;;;;29.15;9.35;;;;;;;9.86;100.00;100414.00;5108439;28;20043;-57
2023/12/08 08:54:37;;;;;;;27.75;9.25;;;;;;;10.04;100.00;100415.69;5107497;28;20056;-59
2023/12/08 08:57:04;;;;;;;27.77;9.95;;;;;;;10.19;100.00;100407.88;5102295;28;20044;-60
2023/12/08 08:59:32;;;;;;;34.55;9.57;;;;;;;10.76;100.00;100414.16;5086134;28;20055;-57
2023/12/08 09:01:59;;;;;;;30.98;10.32;;;;;;;10.47;100.00;100410.38;5084357;28;20044;-55
2023/12/08 09:04:26;;;;;;;29.35;10.30;;;;;;;10.36;100.00;100415.34;5097267;28;20048;-52
2023/12/08 09:06:56;;;;;;;29.23;9.95;;;;;;;10.36;100.00;100417.28;5108576;28;20073;-54
2023/12/08 09:09:23;;;;;;;31.40;9.63;;;;;;;10.44;100.00;100416.53;5090719;28;20055;-55
2023/12/08 09:11:51;;;;;;;34.83;10.07;;;;;;;10.36;100.00;100412.59;5109258;28;20048;-58
2023/12/08 09:14:19;;;;;;;33.63;11.70;;;;;;;10.36;100.00;100407.09;5099576;28;20052;-56
2023/12/08 09:16:49;;;;;;;31.48;10.68;;;;;;;10.42;100.00;100416.84;5103706;28;20063;-58
2023/12/08 09:19:16;;;;;;;30.00;9.93;;;;;;;10.48;100.00;100412.00;5075019;28;20434;-61
2023/12/08 09:21:44;;;;;;;36.97;11.98;;;;;;;10.49;100.00;100414.44;5107946;28;20050;-57
2023/12/08 09:24:21;;;;;;;30.98;10.25;;;;;;;10.49;100.00;100414.44;5098284;28;20043;-61
2023/12/08 09:26:48;;;;;;;34.63;11.27;;;;;;;10.40;100.00;100404.50;5094453;28;21242;-60
2023/12/08 09:29:16;;;;;;;34.35;11.77;;;;;;;10.68;100.00;100416.91;5097324;28;20044;-58
2023/12/08 09:31:44;;;;;;;41.03;11.88;;;;;;;10.70;100.00;100417.41;5095184;28;20616;-64
2023/12/08 09:34:11;;;;;;;39.08;11.90;;;;;;;10.76;100.00;100421.59;5104246;28;20050;-56
2023/12/08 09:36:39;;;;;;;52.40;16.20;;;;;;;10.82;100.00;100415.63;5089821;28;20043;-56
2023/12/08 09:39:08;;;;;;;30.08;11.27;;;;;;;10.73;100.00;100417.56;5103104;28;20076;-53
2023/12/08 09:41:38;;;;;;;39.47;12.10;;;;;;;10.80;100.00;100428.91;5107369;28;20336;-53
2023/12/08 09:44:12;;;;;;;30.65;11.32;;;;;;;10.87;100.00;100431.19;5089906;28;20054;-61
2023/12/08 09:46:43;;;;;;;32.67;11.63;;;;;;;10.83;100.00;100435.72;5109647;28;20058;-59
2023/12/08 09:49:30;;;;;;;35.50;10.32;;;;;;;10.87;100.00;100439.44;5105088;28;20379;-60
2023/12/08 09:51:58;;;;;;;35.65;11.20;;;;;;;10.91;100.00;100437.69;5106950;28;20046;-61
2023/12/08 09:54:26;;;;;;;34.72;11.63;;;;;;;10.82;100.00;100443.19;5092889;28;20550;-62
2023/12/08 09:56:58;;;;;;;33.38;11.30;;;;;;;10.92;100.00;100447.56;5108707;28;20055;-61
2023/12/08 09:59:29;;;;;;;31.73;11.05;;;;;;;10.86;100.00;100452.41;5106645;28;20067;-62
2023/12/08 10:01:56;;;;;;;34.47;12.57;;;;;;;10.80;100.00;100450.97;5091006;28;20068;-62
2023/12/08 10:04:26;;;;;;;33.58;11.80;;;;;;;11.01;100.00;100454.72;5104772;28;20796;-60
2023/12/08 10:06:56;;;;;;;34.30;11.88;;;;;;;10.88;100.00;100450.16;5095352;28;20062;-61
2023/12/08 10:09:23;;;;;;;40.05;12.13;;;;;;;10.93;100.00;100458.25;5103446;28;20476;-60
2023/12/08 10:11:50;;;;;;;37.65;11.63;;;;;;;10.84;100.00;100456.63;5092305;28;20051;-62
2023/12/08 10:14:19;;;;;;;37.55;11.57;;;;;;;10.76;100.00;100461.00;5107691;28;20039;-61
2023/12/08 10:16:47;;;;;;;39.85;11.25;;;;;;;10.83;100.00;100458.56;5094033;28;20048;-60
2023/12/08 10:19:20;;;;;;;32.90;9.40;;;;;;;10.63;100.00;100455.63;5104716;27;20059;-61
2023/12/08 10:22:14;;;;;;;35.03;9.68;;;;;;;10.52;100.00;100457.84;5106268;27;20055;-61
2023/12/08 10:24:41;;;;;;;32.78;8.75;;;;;;;10.73;100.00;100452.56;5103536;28;20044;-61
2023/12/08 10:27:09;;;;;;;41.78;9.52;;;;;;;10.84;100.00;100451.13;5111877;28;20059;-60
2023/12/08 10:29:37;;;;;;;32.90;8.75;;;;;;;10.87;100.00;100447.72;5091801;28;20143;-62
2023/12/08 10:32:04;;;;;;;29.73;8.48;;;;;;;10.75;100.00;100437.34;5092361;28;20048;-62
2023/12/08 10:34:32;;;;;;;38.20;9.77;;;;;;;10.97;100.00;100437.19;5095975;28;20040;-62
2023/12/08 10:37:00;;;;;;;33.55;9.52;;;;;;;10.97;100.00;100437.19;5109953;28;20048;-61
2023/12/08 10:39:27;;;;;;;27.90;7.40;;;;;;;10.96;100.00;100435.59;5097618;28;20043;-60
2023/12/08 10:41:55;;;;;;;32.60;7.70;;;;;;;11.10;100.00;100439.00;5084258;28;20775;-62
2023/12/08 10:44:23;;;;;;;31.95;8.80;;;;;;;11.12;99.22;100436.72;5086903;28;20044;-62
2023/12/08 10:46:52;;;;;;;;;;;;;;;11.11;98.79;100446.13;5109842;28;20051;-60
2023/12/08 10:49:20;;;;;;;36.38;8.07;;;;;;;11.18;99.87;100446.47;5106924;27;20457;-61
2023/12/08 10:51:48;;;;;;;38.97;8.95;;;;;;;11.09;99.18;100448.41;5082956;28;20043;-60
2023/12/08 10:54:16;;;;;;;31.05;7.80;;;;;;;11.45;98.55;100450.03;5105140;28;20064;-61
2023/12/08 10:56:48;;;;;;;33.13;7.55;;;;;;;11.23;97.55;100451.81;5109469;28;20047;-62
2023/12/08 10:59:24;;;;;;;35.13;8.43;;;;;;;11.17;98.00;100441.28;5110040;28;20056;-62
2023/12/08 11:01:55;;;;;;;38.65;10.80;;;;;;;11.02;99.89;100444.47;5081167;28;20047;-61
2023/12/08 11:04:25;;;;;;;50.92;18.13;;;;;;;10.80;100.00;100439.13;5107748;28;20048;-69
2023/12/08 11:07:10;;;;;;;59.08;20.20;;;;;;;11.04;99.52;100434.78;5111455;28;20067;-61
2023/12/08 11:09:40;;;;;;;43.28;15.82;;;;;;;11.14;98.45;100436.41;5077411;28;20430;-57
2023/12/08 11:12:10;;;;;;;40.58;13.85;;;;;;;11.31;97.66;100434.44;5098223;28;20062;-57
2023/12/08 11:14:45;;;;;;;40.17;12.55;;;;;;;11.23;97.28;100434.44;5098404;28;20056;-61
2023/12/08 11:17:36;;;;;;;49.50;14.70;;;;;;;11.21;96.76;100444.97;5095475;28;20048;-57
2023/12/08 11:20:05;;;;;;;38.97;13.10;;;;;;;11.41;97.58;100441.59;5079151;28;20052;-57